createdAt,value
2022-09-12T00:00:23.246Z,93.82
2022-09-12T00:02:55.124Z,93.74
2022-09-12T00:05:22.622Z,94.11
2022-09-12T00:07:50.560Z,93.85
2022-09-12T00:10:22.517Z,94.12
2022-09-12T00:12:55.037Z,94.12
2022-09-12T00:15:22.743Z,94.09
2022-09-12T00:17:50.289Z,94.34
2022-09-12T00:20:22.114Z,94.05
2022-09-12T00:22:49.769Z,94.39
2022-09-12T00:25:17.378Z,94.43
2022-09-12T00:27:46.451Z,94.21
2022-09-12T00:30:14.148Z,94.41
2022-09-12T00:32:42.359Z,94.13
2022-09-12T00:35:09.997Z,94.07
2022-09-12T00:37:37.680Z,93.66
2022-09-12T00:40:05.658Z,93.81
2022-09-12T00:42:33.271Z,93.81
2022-09-12T00:45:00.861Z,93.52
2022-09-12T00:47:28.769Z,93.40
2022-09-12T00:50:08.122Z,93.28
2022-09-12T00:52:45.320Z,93.30
2022-09-12T00:55:20.256Z,93.52
2022-09-12T00:57:58.264Z,94.07
2022-09-12T01:00:26.765Z,94.02
2022-09-12T01:02:56.968Z,94.10
2022-09-12T01:05:24.627Z,93.86
2022-09-12T01:07:52.363Z,93.57
2022-09-12T01:10:20.542Z,92.88
2022-09-12T01:12:48.210Z,92.92
2022-09-12T01:15:16.049Z,92.60
2022-09-12T01:18:10.856Z,92.36
2022-09-12T01:20:51.719Z,92.51
2022-09-12T01:23:44.061Z,92.26
2022-09-12T01:26:32.861Z,91.75
2022-09-12T01:29:06.569Z,91.78
2022-09-12T01:31:57.889Z,92.02
2022-09-12T01:34:42.971Z,92.50
2022-09-12T01:37:19.459Z,92.67
2022-09-12T01:40:29.604Z,92.54
2022-09-12T01:43:21.153Z,92.46
2022-09-12T01:45:54.563Z,92.75
2022-09-12T01:48:28.298Z,92.20
2022-09-12T01:51:21.600Z,91.47
2022-09-12T01:53:55.872Z,91.03
2022-09-12T01:56:26.618Z,90.88
2022-09-12T01:59:44.464Z,91.30
2022-09-12T02:02:36.545Z,91.12
2022-09-12T02:05:10.383Z,91.97
2022-09-12T02:07:45.285Z,91.45
2022-09-12T02:10:13.840Z,90.91
2022-09-12T02:12:56.048Z,90.50
2022-09-12T02:15:25.901Z,90.76
2022-09-12T02:17:53.409Z,90.57
2022-09-12T02:20:47.072Z,90.57
2022-09-12T02:23:22.627Z,90.88
2022-09-12T02:25:53.004Z,90.47
2022-09-12T02:28:30.672Z,90.61
2022-09-12T02:31:13.899Z,90.49
2022-09-12T02:33:44.196Z,90.73
2022-09-12T02:36:33.016Z,90.98
2022-09-12T02:39:00.543Z,91.00
2022-09-12T02:41:28.021Z,91.08
2022-09-12T02:43:55.543Z,90.89
2022-09-12T02:46:28.220Z,90.96
2022-09-12T02:48:56.441Z,90.13
2022-09-12T02:51:24.022Z,89.73
2022-09-12T02:53:51.956Z,89.73
2022-09-12T02:56:24.023Z,89.46
2022-09-12T02:58:51.668Z,89.66
2022-09-12T03:01:36.146Z,89.89
2022-09-12T03:04:35.331Z,90.09
2022-09-12T03:07:05.521Z,89.92
2022-09-12T03:09:58.223Z,89.76
2022-09-12T03:12:52.569Z,89.37
2022-09-12T03:15:35.649Z,90.46
2022-09-12T03:18:21.170Z,90.53
2022-09-12T03:21:07.473Z,90.48
2022-09-12T03:23:39.484Z,90.69
2022-09-12T03:26:16.072Z,90.35
2022-09-12T03:28:44.194Z,90.29
2022-09-12T03:31:15.604Z,90.01
2022-09-12T03:33:42.996Z,90.13
2022-09-12T03:36:20.752Z,90.16
2022-09-12T03:38:48.321Z,89.88
2022-09-12T03:41:15.852Z,89.73
2022-09-12T03:43:43.469Z,90.33
2022-09-12T03:46:10.961Z,90.27
2022-09-12T03:48:40.788Z,89.61
2022-09-12T03:51:09.852Z,89.44
2022-09-12T03:53:37.381Z,88.88
2022-09-12T03:56:08.844Z,88.25
2022-09-12T03:58:36.580Z,88.25
2022-09-12T04:01:12.868Z,87.61
2022-09-12T04:03:41.449Z,87.35
2022-09-12T04:06:09.974Z,86.61
2022-09-12T04:08:37.804Z,85.90
2022-09-12T04:11:06.531Z,85.79
2022-09-12T04:13:35.230Z,85.95
2022-09-12T04:16:03.268Z,85.30
2022-09-12T04:18:31.135Z,84.23
2022-09-12T04:20:58.581Z,83.23
2022-09-12T04:23:26.101Z,83.12
2022-09-12T04:25:57.461Z,82.27
2022-09-12T04:28:25.375Z,81.62
2022-09-12T04:30:52.939Z,80.84
2022-09-12T04:33:20.591Z,79.93
2022-09-12T04:35:48.387Z,80.18
2022-09-12T04:38:15.937Z,79.48
2022-09-12T04:40:43.460Z,79.24
2022-09-12T04:43:14.411Z,79.04
2022-09-12T04:45:42.271Z,78.86
2022-09-12T04:48:09.820Z,77.90
2022-09-12T04:50:37.279Z,77.31
2022-09-12T04:53:04.851Z,76.71
2022-09-12T04:55:34.364Z,76.33
2022-09-12T04:58:02.281Z,75.68
2022-09-12T05:00:29.888Z,75.13
2022-09-12T05:02:57.413Z,74.86
2022-09-12T05:05:24.929Z,75.01
2022-09-12T05:07:53.056Z,74.96
2022-09-12T05:10:20.532Z,74.81
2022-09-12T05:12:48.485Z,74.29
2022-09-12T05:15:16.208Z,73.82
2022-09-12T05:17:43.816Z,73.37
2022-09-12T05:20:12.958Z,73.86
2022-09-12T05:22:40.396Z,74.42
2022-09-12T05:25:08.760Z,74.54
2022-09-12T05:27:36.302Z,74.98
2022-09-12T05:30:04.737Z,75.21
2022-09-12T05:32:32.645Z,75.04
2022-09-12T05:35:00.499Z,74.41
2022-09-12T05:37:28.872Z,74.23
2022-09-12T05:39:56.677Z,74.64
2022-09-12T05:42:24.168Z,74.60
2022-09-12T05:44:51.845Z,74.53
2022-09-12T05:47:19.365Z,74.95
2022-09-12T05:49:48.126Z,75.13
2022-09-12T05:52:16.337Z,75.21
2022-09-12T05:54:43.807Z,75.39
2022-09-12T05:57:11.299Z,75.69
2022-09-12T05:59:39.451Z,75.70
2022-09-12T06:02:07.367Z,75.19
2022-09-12T06:04:34.926Z,74.71
2022-09-12T06:07:02.416Z,74.92
2022-09-12T06:09:30.231Z,74.60
2022-09-12T06:11:57.694Z,73.98
2022-09-12T06:14:25.525Z,74.19
2022-09-12T06:16:53.077Z,73.94
2022-09-12T06:19:21.777Z,74.32
2022-09-12T06:21:49.826Z,73.75
2022-09-12T06:24:18.006Z,73.34
2022-09-12T06:26:45.597Z,73.82
2022-09-12T06:29:13.478Z,74.05
2022-09-12T06:31:41.983Z,73.96
2022-09-12T06:34:11.561Z,74.23
2022-09-12T06:36:46.581Z,74.05
2022-09-12T06:39:16.327Z,74.05
2022-09-12T06:41:44.617Z,74.51
2022-09-12T06:44:16.818Z,73.62
2022-09-12T06:46:44.671Z,72.86
2022-09-12T06:49:12.195Z,72.55
2022-09-12T06:51:42.197Z,72.11
2022-09-12T06:54:13.062Z,70.90
2022-09-12T06:56:40.920Z,70.83
2022-09-12T06:59:08.731Z,70.55
2022-09-12T07:01:36.644Z,70.52
2022-09-12T07:04:04.798Z,70.12
2022-09-12T07:06:39.981Z,68.71
2022-09-12T07:09:09.929Z,67.64
2022-09-12T07:11:38.186Z,67.60
2022-09-12T07:14:06.622Z,68.16
2022-09-12T07:16:37.674Z,67.44
2022-09-12T07:19:06.741Z,67.18
2022-09-12T07:21:39.090Z,67.27
2022-09-12T07:24:08.803Z,67.24
2022-09-12T07:26:36.455Z,67.61
2022-09-12T07:29:32.251Z,68.62
2022-09-12T07:31:52.714Z,69.24
2022-09-12T07:34:20.184Z,70.24
2022-09-12T07:36:47.976Z,69.73
2022-09-12T07:39:15.444Z,69.10
2022-09-12T07:41:43.364Z,68.55
2022-09-12T07:44:10.838Z,68.64
2022-09-12T07:46:40.071Z,70.04
2022-09-12T07:49:08.466Z,70.80
2022-09-12T07:51:36.272Z,71.40
2022-09-12T07:54:07.930Z,71.78
2022-09-12T07:56:38.887Z,73.15
2022-09-12T07:59:08.272Z,74.24
2022-09-12T08:01:35.889Z,74.28
2022-09-12T08:04:05.113Z,74.81
2022-09-12T08:06:34.012Z,74.57
2022-09-12T08:09:02.043Z,75.04
2022-09-12T08:11:30.345Z,74.00
2022-09-12T08:13:58.334Z,73.79
2022-09-12T08:16:27.901Z,71.86
2022-09-12T08:18:55.595Z,72.73
2022-09-12T08:21:24.857Z,72.52
2022-09-12T08:23:57.221Z,73.17
2022-09-12T08:26:25.251Z,71.77
2022-09-12T08:28:53.538Z,71.30
2022-09-12T08:31:22.781Z,71.45
2022-09-12T08:33:50.531Z,72.18
2022-09-12T08:36:19.993Z,71.27
2022-09-12T08:38:49.594Z,71.16
2022-09-12T08:41:32.011Z,70.64
2022-09-12T08:43:59.710Z,70.68
2022-09-12T08:46:41.204Z,69.80
2022-09-12T08:49:10.069Z,68.86
2022-09-12T08:51:38.185Z,67.68
2022-09-12T08:54:05.743Z,66.60
2022-09-12T08:56:35.822Z,63.12
2022-09-12T08:59:03.411Z,62.60
2022-09-12T09:01:32.100Z,61.25
2022-09-12T09:04:12.316Z,62.77
2022-09-12T09:07:01.389Z,63.50
2022-09-12T09:09:42.535Z,61.56
2022-09-12T09:12:19.603Z,60.93
2022-09-12T09:14:51.557Z,61.30
2022-09-12T09:17:26.451Z,61.12
2022-09-12T09:20:13.569Z,61.71
2022-09-12T09:23:16.058Z,61.41
2022-09-12T09:25:46.249Z,59.04
2022-09-12T09:28:19.619Z,59.56
2022-09-12T09:30:47.224Z,57.68
2022-09-12T09:33:25.047Z,58.89
2022-09-12T09:35:59.375Z,58.41
2022-09-12T09:38:42.013Z,58.90
2022-09-12T09:41:41.442Z,58.59
2022-09-12T09:44:09.080Z,59.60
2022-09-12T09:46:36.798Z,58.92
2022-09-12T09:49:05.649Z,60.59
2022-09-12T09:51:35.850Z,59.80
2022-09-12T09:54:21.838Z,61.69
2022-09-12T09:56:49.636Z,60.43
2022-09-12T09:59:18.142Z,60.05
2022-09-12T10:01:47.407Z,59.18
2022-09-12T10:04:22.561Z,59.17
2022-09-12T10:07:19.445Z,58.16
2022-09-12T10:10:19.640Z,59.14
2022-09-12T10:12:47.322Z,60.05
2022-09-12T10:15:19.770Z,58.50
2022-09-12T10:17:48.537Z,59.80
2022-09-12T10:20:35.519Z,57.99
2022-09-12T10:23:30.827Z,59.44
2022-09-12T10:26:01.544Z,58.71
2022-09-12T10:28:36.150Z,58.41
2022-09-12T10:31:03.799Z,59.10
2022-09-12T10:33:37.529Z,59.71
2022-09-12T10:36:05.155Z,62.39
2022-09-12T10:38:32.805Z,58.40
2022-09-12T10:41:06.702Z,58.84
2022-09-12T10:43:34.345Z,59.57
2022-09-12T10:46:20.257Z,57.55
2022-09-12T10:48:51.817Z,58.33
2022-09-12T10:51:25.299Z,57.61
2022-09-12T10:53:54.726Z,58.20
2022-09-12T10:56:23.282Z,58.18
2022-09-12T10:59:09.220Z,55.61
2022-09-12T11:01:45.329Z,55.93
2022-09-12T11:04:48.591Z,55.34
2022-09-12T11:07:40.482Z,56.88
2022-09-12T11:10:27.155Z,55.30
2022-09-12T11:13:06.240Z,55.50
2022-09-12T11:15:58.175Z,55.35
2022-09-12T11:18:28.701Z,56.75
2022-09-12T11:21:03.088Z,55.98
2022-09-12T11:24:15.520Z,56.54
2022-09-12T11:26:55.370Z,55.73
2022-09-12T11:29:46.973Z,55.16
2022-09-12T11:32:51.445Z,54.90
2022-09-12T11:35:41.090Z,54.16
2022-09-12T11:38:20.369Z,56.26
2022-09-12T11:40:50.690Z,55.57
2022-09-12T11:43:38.372Z,54.38
2022-09-12T11:46:24.633Z,54.46
2022-09-12T11:48:57.600Z,53.82
2022-09-12T11:51:32.388Z,54.51
2022-09-12T11:54:02.770Z,54.79
2022-09-12T11:56:30.341Z,55.57
2022-09-12T11:59:04.381Z,54.17
2022-09-12T12:01:40.444Z,54.05
2022-09-12T12:04:12.292Z,53.48
2022-09-12T12:06:52.892Z,55.08
2022-09-12T12:09:20.416Z,55.69
2022-09-12T12:11:53.351Z,55.98
2022-09-12T12:14:25.925Z,54.83
2022-09-12T12:16:53.401Z,54.72
2022-09-12T12:19:30.730Z,53.77
2022-09-12T12:22:12.663Z,53.73
2022-09-12T12:24:58.840Z,53.68
2022-09-12T12:27:48.240Z,54.51
2022-09-12T12:30:31.108Z,53.84
2022-09-12T12:33:11.006Z,53.81
2022-09-12T12:35:41.788Z,54.01
2022-09-12T12:38:31.203Z,55.83
2022-09-12T12:41:16.942Z,54.24
2022-09-12T12:43:47.555Z,52.03
2022-09-12T12:46:16.437Z,51.90
2022-09-12T12:49:05.343Z,49.35
2022-09-12T12:51:45.735Z,50.53
2022-09-12T12:54:51.273Z,48.77
2022-09-12T12:57:27.806Z,48.20
2022-09-12T13:00:06.974Z,47.48
2022-09-12T13:02:49.223Z,46.18
2022-09-12T13:05:19.900Z,48.13
2022-09-12T13:07:48.365Z,47.72
2022-09-12T13:10:28.946Z,47.17
2022-09-12T13:12:58.176Z,47.52
2022-09-12T13:15:36.218Z,48.47
2022-09-12T13:18:11.322Z,49.70
2022-09-12T13:20:48.572Z,50.90
2022-09-12T13:23:27.829Z,50.34
2022-09-12T13:25:57.073Z,48.74
2022-09-12T13:28:26.501Z,48.70
2022-09-12T13:31:01.515Z,47.08
2022-09-12T13:33:50.997Z,47.89
2022-09-12T13:36:52.308Z,48.69
2022-09-12T13:39:19.717Z,49.37
2022-09-12T13:42:25.886Z,48.64
2022-09-12T13:44:59.125Z,49.45
2022-09-12T13:47:35.505Z,50.35
2022-09-12T13:50:03.800Z,49.61
2022-09-12T13:52:33.556Z,50.20
2022-09-12T13:55:01.166Z,50.49
2022-09-12T13:57:37.776Z,51.83
2022-09-12T14:00:20.694Z,50.40
2022-09-12T14:02:49.885Z,50.29
2022-09-12T14:05:22.731Z,50.23
2022-09-12T14:07:58.521Z,53.93
2022-09-12T14:10:30.436Z,55.53
2022-09-12T14:13:20.033Z,55.33
2022-09-12T14:15:49.120Z,56.62
2022-09-12T14:18:29.670Z,57.52
2022-09-12T14:21:00.936Z,56.47
2022-09-12T14:23:31.180Z,58.97
2022-09-12T14:26:01.198Z,59.50
2022-09-12T14:28:30.363Z,60.42
2022-09-12T14:31:04.076Z,60.48
2022-09-12T14:33:59.922Z,59.04
2022-09-12T14:36:44.499Z,59.76
2022-09-12T14:39:30.912Z,61.26
2022-09-12T14:42:17.756Z,59.26
2022-09-12T14:44:59.383Z,59.58
2022-09-12T14:47:27.882Z,61.00
2022-09-12T14:49:55.369Z,63.96
2022-09-12T14:52:30.767Z,64.33
2022-09-12T14:55:03.720Z,66.21
2022-09-12T14:57:33.854Z,67.37
2022-09-12T15:00:14.409Z,68.17
2022-09-12T15:02:42.845Z,68.60
2022-09-12T15:05:10.874Z,69.65
2022-09-12T15:07:44.142Z,69.62
2022-09-12T15:10:28.018Z,69.01
2022-09-12T15:13:19.715Z,68.91
2022-09-12T15:15:49.183Z,68.10
2022-09-12T15:18:18.350Z,67.96
2022-09-12T15:20:47.278Z,67.43
2022-09-12T15:23:19.192Z,66.86
2022-09-12T15:25:47.017Z,66.89
2022-09-12T15:28:19.431Z,66.91
2022-09-12T15:30:47.946Z,67.62
2022-09-12T15:33:16.641Z,67.69
2022-09-12T15:35:44.229Z,68.18
2022-09-12T15:38:12.342Z,68.55
2022-09-12T15:40:40.024Z,69.38
2022-09-12T15:43:07.543Z,69.84
2022-09-12T15:45:35.125Z,70.50
2022-09-12T15:48:03.528Z,70.91
2022-09-12T15:50:31.088Z,71.37
2022-09-12T15:52:58.690Z,71.77
2022-09-12T15:55:29.390Z,72.52
2022-09-12T15:57:56.973Z,72.85
2022-09-12T16:00:24.490Z,73.13
2022-09-12T16:02:52.727Z,73.82
2022-09-12T16:05:23.302Z,74.47
2022-09-12T16:07:52.569Z,74.83
2022-09-12T16:10:26.179Z,75.50
2022-09-12T16:12:53.732Z,75.75
2022-09-12T16:15:23.468Z,76.18
2022-09-12T16:17:51.058Z,76.81
2022-09-12T16:20:19.440Z,76.98
2022-09-12T16:22:46.968Z,77.70
2022-09-12T16:25:14.516Z,77.70
2022-09-12T16:27:42.582Z,77.82
2022-09-12T16:30:10.597Z,78.03
2022-09-12T16:32:38.532Z,78.64
2022-09-12T16:35:06.624Z,78.87
2022-09-12T16:37:34.771Z,79.17
2022-09-12T16:40:03.700Z,79.52
2022-09-12T16:42:31.446Z,79.74
2022-09-12T16:44:58.989Z,80.36
2022-09-12T16:47:26.562Z,80.37
2022-09-12T16:49:54.301Z,80.79
2022-09-12T16:52:22.089Z,81.41
2022-09-12T16:54:49.541Z,81.71
2022-09-12T16:57:17.159Z,82.13
2022-09-12T16:59:44.700Z,82.64
2022-09-12T17:02:13.731Z,82.75
2022-09-12T17:04:41.595Z,83.19
2022-09-12T17:07:10.569Z,83.37
2022-09-12T17:09:38.611Z,83.54
2022-09-12T17:12:06.245Z,83.97
2022-09-12T17:14:37.041Z,84.26
2022-09-12T17:17:04.896Z,84.03
2022-09-12T17:19:33.172Z,84.10
2022-09-12T17:22:00.669Z,84.16
2022-09-12T17:24:28.153Z,84.15
2022-09-12T17:26:57.205Z,84.10
2022-09-12T17:29:24.658Z,84.47
2022-09-12T17:31:52.474Z,84.66
2022-09-12T17:34:20.225Z,84.74
2022-09-12T17:36:48.601Z,85.09
2022-09-12T17:39:16.077Z,85.46
2022-09-12T17:41:44.080Z,85.57
2022-09-12T17:44:12.604Z,85.56
2022-09-12T17:46:41.437Z,85.35
2022-09-12T17:49:12.079Z,85.36
2022-09-12T17:51:40.525Z,85.70
2022-09-12T17:54:14.211Z,85.85
2022-09-12T17:56:42.900Z,86.14
2022-09-12T17:59:13.564Z,85.63
2022-09-12T18:01:59.805Z,85.89
2022-09-12T18:04:27.841Z,85.52
2022-09-12T18:06:57.705Z,85.54
2022-09-12T18:09:25.554Z,85.66
2022-09-12T18:11:53.373Z,85.87
2022-09-12T18:14:21.106Z,85.72
2022-09-12T18:16:48.693Z,85.71
2022-09-12T18:19:16.548Z,85.88
2022-09-12T18:21:44.114Z,86.05
2022-09-12T18:24:11.949Z,85.94
2022-09-12T18:26:40.320Z,86.05
2022-09-12T18:29:07.998Z,86.44
2022-09-12T18:31:35.871Z,86.55
2022-09-12T18:34:05.988Z,86.98
2022-09-12T18:36:34.678Z,87.06
2022-09-12T18:39:02.233Z,87.48
2022-09-12T18:41:30.075Z,87.85
2022-09-12T18:43:58.786Z,87.94
2022-09-12T18:46:26.857Z,88.90
2022-09-12T18:48:58.103Z,89.43
2022-09-12T18:51:31.505Z,89.86
2022-09-12T18:54:01.254Z,90.10
2022-09-12T18:56:33.036Z,90.58
2022-09-12T18:59:01.964Z,91.42
2022-09-12T19:01:30.927Z,91.78
2022-09-12T19:03:59.189Z,93.54
2022-09-12T19:06:28.492Z,92.99
2022-09-12T19:08:56.725Z,93.57
2022-09-12T19:11:24.792Z,92.87
2022-09-12T19:13:53.272Z,92.75
2022-09-12T19:16:24.890Z,92.49
2022-09-12T19:18:52.805Z,92.62
2022-09-12T19:21:25.193Z,93.05
2022-09-12T19:23:53.609Z,93.54
2022-09-12T19:26:21.327Z,94.19
2022-09-12T19:28:48.914Z,94.21
2022-09-12T19:31:19.071Z,95.54
2022-09-12T19:33:46.910Z,95.88
2022-09-12T19:36:40.787Z,96.40
2022-09-12T19:39:04.455Z,96.40
2022-09-12T19:41:32.136Z,96.25
2022-09-12T19:43:59.919Z,97.06
2022-09-12T19:46:27.485Z,97.06
2022-09-12T19:48:55.345Z,96.99
2022-09-12T19:51:24.258Z,99.39
2022-09-12T19:53:52.019Z,99.58
2022-09-12T19:56:19.885Z,98.74
2022-09-12T19:58:51.012Z,100.00
2022-09-12T20:01:25.043Z,98.40
2022-09-12T20:03:53.936Z,97.72
2022-09-12T20:06:21.397Z,97.66
2022-09-12T20:08:49.071Z,98.35
2022-09-12T20:11:18.353Z,98.72
2022-09-12T20:14:02.421Z,99.23
2022-09-12T20:16:30.363Z,99.05
2022-09-12T20:18:59.958Z,98.69
2022-09-12T20:21:32.717Z,99.03
2022-09-12T20:24:03.330Z,100.00
2022-09-12T20:26:31.224Z,100.00
2022-09-12T20:28:58.917Z,100.00
2022-09-12T20:31:26.578Z,100.00
2022-09-12T20:33:54.501Z,100.00
2022-09-12T20:36:23.105Z,100.00
2022-09-12T20:38:56.968Z,100.00
2022-09-12T20:41:26.702Z,100.00
2022-09-12T20:43:55.401Z,100.00
2022-09-12T20:46:23.434Z,100.00
2022-09-12T20:48:51.223Z,100.00
2022-09-12T20:51:19.837Z,100.00
2022-09-12T20:53:47.963Z,100.00
2022-09-12T20:56:15.624Z,100.00
2022-09-12T20:58:44.419Z,100.00
2022-09-12T21:01:13.399Z,100.00
2022-09-12T21:03:41.630Z,100.00
2022-09-12T21:06:10.042Z,100.00
2022-09-12T21:08:37.599Z,100.00
2022-09-12T21:11:06.324Z,100.00
2022-09-12T21:13:33.895Z,100.00
2022-09-12T21:16:07.464Z,100.00
2022-09-12T21:18:35.272Z,100.00
2022-09-12T21:21:03.311Z,100.00
2022-09-12T21:23:31.621Z,100.00
2022-09-12T21:26:00.190Z,100.00
2022-09-12T21:28:27.908Z,100.00
2022-09-12T21:30:56.179Z,100.00
2022-09-12T21:33:23.849Z,100.00
2022-09-12T21:35:51.379Z,100.00
2022-09-12T21:38:19.198Z,100.00
2022-09-12T21:40:47.255Z,100.00
2022-09-12T21:43:15.057Z,100.00
2022-09-12T21:45:42.625Z,100.00
2022-09-12T21:48:13.625Z,100.00
2022-09-12T21:50:41.153Z,100.00
2022-09-12T21:53:08.681Z,100.00
2022-09-12T21:55:36.937Z,100.00
2022-09-12T21:58:04.391Z,100.00
2022-09-12T22:00:32.139Z,100.00
2022-09-12T22:02:59.753Z,100.00
2022-09-12T22:05:31.720Z,100.00
2022-09-12T22:08:00.818Z,100.00
2022-09-12T22:10:28.562Z,100.00
2022-09-12T22:12:56.164Z,100.00
2022-09-12T22:15:40.208Z,100.00
2022-09-12T22:18:08.567Z,100.00
2022-09-12T22:20:36.460Z,100.00
2022-09-12T22:23:25.145Z,100.00
2022-09-12T22:25:55.714Z,100.00
2022-09-12T22:28:23.324Z,100.00
2022-09-12T22:30:51.927Z,100.00
2022-09-12T22:33:19.504Z,100.00
2022-09-12T22:35:47.140Z,100.00
2022-09-12T22:38:14.585Z,100.00
2022-09-12T22:40:42.481Z,100.00
2022-09-12T22:43:10.087Z,100.00
2022-09-12T22:45:40.925Z,100.00
2022-09-12T22:48:09.435Z,100.00
2022-09-12T22:50:37.529Z,100.00
2022-09-12T22:53:07.575Z,100.00
2022-09-12T22:55:35.296Z,100.00
2022-09-12T22:58:03.806Z,100.00
2022-09-12T23:00:32.125Z,100.00
2022-09-12T23:02:59.842Z,100.00
2022-09-12T23:05:28.205Z,100.00
2022-09-12T23:07:55.792Z,100.00
2022-09-12T23:10:23.475Z,100.00
2022-09-12T23:12:51.050Z,100.00
2022-09-12T23:15:18.700Z,100.00
2022-09-12T23:17:46.273Z,100.00
2022-09-12T23:20:13.751Z,100.00
2022-09-12T23:22:41.189Z,100.00
2022-09-12T23:25:08.884Z,100.00
2022-09-12T23:27:36.408Z,100.00
2022-09-12T23:30:04.197Z,100.00
2022-09-12T23:32:32.180Z,100.00
2022-09-12T23:34:59.708Z,100.00
2022-09-12T23:37:27.201Z,100.00
2022-09-12T23:39:54.981Z,100.00
2022-09-12T23:42:22.752Z,100.00
2022-09-12T23:44:50.899Z,100.00
2022-09-12T23:47:18.570Z,100.00
2022-09-12T23:49:46.073Z,100.00
2022-09-12T23:52:13.713Z,100.00
2022-09-12T23:54:41.776Z,100.00
2022-09-12T23:57:09.366Z,100.00
2022-09-12T23:59:37.071Z,100.00
